createdAt,value
2019-01-24T00:01:05.513Z,-0.70
2019-01-24T00:03:34.798Z,-0.70
2019-01-24T00:06:04.083Z,-0.60
2019-01-24T00:08:33.423Z,-0.70
2019-01-24T00:11:03.093Z,-0.60
2019-01-24T00:13:32.757Z,-0.60
2019-01-24T00:16:02.378Z,-0.60
2019-01-24T00:18:32.081Z,-0.60
2019-01-24T00:21:01.905Z,-0.60
2019-01-24T00:23:31.471Z,-0.60
2019-01-24T00:26:01.199Z,-0.60
2019-01-24T00:28:31.131Z,-0.60
2019-01-24T00:31:00.504Z,-0.60
2019-01-24T00:33:29.700Z,-0.60
2019-01-24T00:35:59.244Z,-0.60
2019-01-24T00:38:28.529Z,-0.60
2019-01-24T00:40:57.834Z,-0.60
2019-01-24T00:43:27.669Z,-0.60
2019-01-24T00:45:57.429Z,-0.60
2019-01-24T00:48:27.098Z,-0.60
2019-01-24T00:50:56.381Z,-0.60
2019-01-24T00:53:26.059Z,-0.60
2019-01-24T00:55:56.328Z,-0.60
2019-01-24T00:58:25.595Z,-0.60
2019-01-24T01:00:55.125Z,-0.70
2019-01-24T01:03:24.470Z,-0.70
2019-01-24T01:05:53.665Z,-0.70
2019-01-24T01:08:22.958Z,-0.70
2019-01-24T01:10:52.173Z,-0.80
2019-01-24T01:13:21.856Z,-0.80
2019-01-24T01:15:51.261Z,-0.80
2019-01-24T01:18:20.948Z,-0.80
2019-01-24T01:20:50.574Z,-0.80
2019-01-24T01:23:20.310Z,-0.80
2019-01-24T01:25:49.990Z,-0.70
2019-01-24T01:28:19.702Z,-0.80
2019-01-24T01:30:49.315Z,-0.80
2019-01-24T01:33:18.993Z,-0.80
2019-01-24T01:35:48.380Z,-0.80
2019-01-24T01:38:17.770Z,-0.80
2019-01-24T01:40:47.123Z,-0.80
2019-01-24T01:43:16.472Z,-0.80
2019-01-24T01:45:45.777Z,-0.90
2019-01-24T01:48:15.360Z,-0.90
2019-01-24T01:50:48.035Z,-0.90
2019-01-24T01:53:17.286Z,-0.90
2019-01-24T01:55:46.664Z,-0.80
2019-01-24T01:58:15.968Z,-0.90
2019-01-24T02:00:45.549Z,-0.90
2019-01-24T02:03:14.904Z,-0.90
2019-01-24T02:05:44.269Z,-0.90
2019-01-24T02:08:13.923Z,-0.90
2019-01-24T02:10:53.305Z,-0.90
2019-01-24T02:13:30.082Z,-0.90
2019-01-24T02:15:59.447Z,-0.90
2019-01-24T02:18:29.093Z,-0.90
2019-01-24T02:20:58.435Z,-0.90
2019-01-24T02:23:27.725Z,-1.10
2019-01-24T02:25:57.127Z,-0.90
2019-01-24T02:28:26.537Z,-0.80
2019-01-24T02:30:55.917Z,-0.90
2019-01-24T02:33:25.229Z,-0.90
2019-01-24T02:35:54.597Z,-0.90
2019-01-24T02:38:23.815Z,-0.90
2019-01-24T02:40:53.230Z,-0.90
2019-01-24T02:43:22.942Z,-0.90
2019-01-24T02:45:52.228Z,-0.90
2019-01-24T02:48:21.630Z,-0.90
2019-01-24T02:50:51.649Z,-0.90
2019-01-24T02:53:21.368Z,-0.80
2019-01-24T02:55:50.778Z,-0.80
2019-01-24T02:58:20.129Z,-0.80
2019-01-24T03:00:49.781Z,-0.80
2019-01-24T03:03:19.539Z,-0.80
2019-01-24T03:05:49.147Z,-0.80
2019-01-24T03:08:18.604Z,-0.80
2019-01-24T03:10:47.871Z,-0.80
2019-01-24T03:13:17.575Z,-0.80
2019-01-24T03:15:47.209Z,-0.80
2019-01-24T03:18:16.845Z,-0.80
2019-01-24T03:20:50.484Z,-0.70
2019-01-24T03:23:19.828Z,-0.80
2019-01-24T03:25:49.566Z,-0.70
2019-01-24T03:28:18.893Z,-0.80
2019-01-24T03:30:48.292Z,-0.80
2019-01-24T03:33:17.663Z,-0.80
2019-01-24T03:35:46.934Z,-0.70
2019-01-24T03:38:16.354Z,-0.80
2019-01-24T03:40:46.027Z,-0.80
2019-01-24T03:43:15.325Z,-0.80
2019-01-24T03:45:44.644Z,-0.90
2019-01-24T03:48:13.924Z,-0.90
2019-01-24T03:50:43.110Z,-0.80
2019-01-24T03:53:12.798Z,-0.80
2019-01-24T03:55:42.198Z,-0.80
2019-01-24T03:58:11.638Z,-0.80
2019-01-24T04:00:40.972Z,-0.80
2019-01-24T04:03:12.152Z,-0.80
2019-01-24T04:05:41.554Z,-0.80
2019-01-24T04:08:20.052Z,-0.90
2019-01-24T04:10:49.308Z,-0.90
2019-01-24T04:13:19.016Z,-0.90
2019-01-24T04:15:48.590Z,-0.90
2019-01-24T04:18:18.710Z,-0.90
2019-01-24T04:20:48.601Z,-0.80
2019-01-24T04:23:17.902Z,-0.80
2019-01-24T04:25:47.538Z,-0.80
2019-01-24T04:28:16.932Z,-0.80
2019-01-24T04:30:46.202Z,-0.70
2019-01-24T04:33:15.856Z,-0.70
2019-01-24T04:35:45.242Z,-0.70
2019-01-24T04:38:14.998Z,-0.70
2019-01-24T04:40:44.357Z,-0.70
2019-01-24T04:43:16.420Z,-0.70
2019-01-24T04:45:45.721Z,-0.70
2019-01-24T04:48:15.086Z,-0.70
2019-01-24T04:50:44.418Z,-0.70
2019-01-24T04:53:14.066Z,-0.70
2019-01-24T04:55:43.420Z,-0.70
2019-01-24T04:58:12.754Z,-0.70
2019-01-24T05:00:42.122Z,-0.70
2019-01-24T05:03:11.343Z,-0.80
2019-01-24T05:05:40.664Z,-0.70
2019-01-24T05:08:10.021Z,-0.70
2019-01-24T05:10:39.318Z,-0.70
2019-01-24T05:13:08.654Z,-0.80
2019-01-24T05:15:38.381Z,-0.80
2019-01-24T05:18:07.726Z,-0.80
2019-01-24T05:20:37.395Z,-0.80
2019-01-24T05:23:09.538Z,-0.80
2019-01-24T05:25:39.109Z,-0.80
2019-01-24T05:28:08.434Z,-0.80
2019-01-24T05:30:37.812Z,-0.80
2019-01-24T05:33:10.469Z,-0.80
2019-01-24T05:35:39.871Z,-0.80
2019-01-24T05:38:09.097Z,-0.80
2019-01-24T05:40:38.416Z,-0.90
2019-01-24T05:43:07.785Z,-0.90
2019-01-24T05:45:37.091Z,-0.80
2019-01-24T05:48:06.972Z,-0.80
2019-01-24T05:50:36.357Z,-0.80
2019-01-24T05:53:05.713Z,-0.70
2019-01-24T05:55:35.002Z,-0.70
2019-01-24T05:58:04.330Z,-0.70
2019-01-24T06:00:39.079Z,-0.70
2019-01-24T06:03:08.785Z,-0.60
2019-01-24T06:05:41.863Z,-0.60
2019-01-24T06:08:11.360Z,-0.60
2019-01-24T06:10:40.583Z,-0.60
2019-01-24T06:13:09.962Z,-0.60
2019-01-24T06:15:39.251Z,-0.60
2019-01-24T06:18:18.289Z,-0.60
2019-01-24T06:20:47.712Z,-0.60
2019-01-24T06:23:17.093Z,-0.60
2019-01-24T06:25:46.417Z,-0.60
2019-01-24T06:28:15.936Z,-0.60
2019-01-24T06:30:45.328Z,-0.60
2019-01-24T06:33:15.104Z,-0.60
2019-01-24T06:35:48.661Z,-0.60
2019-01-24T06:38:15.620Z,-0.60
2019-01-24T06:40:45.353Z,-0.60
2019-01-24T06:43:14.745Z,-0.60
2019-01-24T06:45:44.112Z,-0.70
2019-01-24T06:48:13.486Z,-0.70
2019-01-24T06:50:42.877Z,-0.70
2019-01-24T06:53:12.396Z,-0.70
2019-01-24T06:55:41.768Z,-0.70
2019-01-24T06:58:11.105Z,-0.70
2019-01-24T07:00:43.045Z,-0.70
2019-01-24T07:03:13.348Z,-0.70
2019-01-24T07:05:42.598Z,-0.70
2019-01-24T07:08:11.974Z,-0.70
2019-01-24T07:10:41.332Z,-0.70
2019-01-24T07:13:10.718Z,-0.70
2019-01-24T07:15:40.090Z,-0.70
2019-01-24T07:18:09.593Z,-0.70
2019-01-24T07:20:38.904Z,-0.70
2019-01-24T07:23:08.883Z,-0.70
2019-01-24T07:25:38.450Z,-0.70
2019-01-24T07:28:08.317Z,-0.80
2019-01-24T07:30:38.208Z,-0.80
2019-01-24T07:33:09.061Z,-0.80
2019-01-24T07:35:38.378Z,-0.80
2019-01-24T07:38:08.169Z,-0.70
2019-01-24T07:40:37.456Z,-0.70
2019-01-24T07:43:07.102Z,-0.70
2019-01-24T07:45:40.834Z,-0.60
2019-01-24T07:48:13.687Z,-0.60
2019-01-24T07:50:42.936Z,-0.60
2019-01-24T07:53:12.457Z,-0.60
2019-01-24T07:55:42.527Z,-0.60
2019-01-24T07:58:12.052Z,-0.70
2019-01-24T08:00:41.435Z,-0.70
2019-01-24T08:03:10.922Z,-0.70
2019-01-24T08:05:40.518Z,-0.60
2019-01-24T08:08:09.818Z,-0.60
2019-01-24T08:10:39.198Z,-0.60
2019-01-24T08:13:08.782Z,-0.70
2019-01-24T08:15:38.352Z,-0.70
2019-01-24T08:18:07.952Z,-0.70
2019-01-24T08:20:37.624Z,-0.70
2019-01-24T08:23:07.053Z,-0.70
2019-01-24T08:25:36.812Z,-0.70
2019-01-24T08:28:06.206Z,-0.70
2019-01-24T08:30:35.570Z,-0.70
2019-01-24T08:33:05.149Z,-0.70
2019-01-24T08:35:34.377Z,-0.70
2019-01-24T08:38:03.769Z,-0.70
2019-01-24T08:40:33.447Z,-0.60
2019-01-24T08:43:03.044Z,-0.60
2019-01-24T08:45:32.330Z,-0.60
2019-01-24T08:48:01.717Z,-0.60
2019-01-24T08:50:31.084Z,-0.60
2019-01-24T08:53:00.453Z,-0.60
2019-01-24T08:55:35.745Z,-0.50
2019-01-24T08:58:06.230Z,-0.50
2019-01-24T09:00:35.619Z,-0.50
2019-01-24T09:03:05.625Z,-0.50
2019-01-24T09:05:35.185Z,-0.50
2019-01-24T09:08:05.218Z,-0.40
2019-01-24T09:10:36.445Z,-0.50
2019-01-24T09:13:06.914Z,-0.40
2019-01-24T09:15:36.946Z,-0.50
2019-01-24T09:18:07.785Z,-0.50
2019-01-24T09:20:37.181Z,-0.50
2019-01-24T09:23:07.369Z,-0.40
2019-01-24T09:25:36.809Z,-0.40
2019-01-24T09:28:06.165Z,-0.30
2019-01-24T09:30:35.956Z,-0.40
2019-01-24T09:33:05.389Z,-0.30
2019-01-24T09:35:35.014Z,-0.20
2019-01-24T09:38:04.522Z,-0.20
2019-01-24T09:40:34.457Z,-0.20
2019-01-24T09:43:04.375Z,-0.10
2019-01-24T09:45:33.757Z,-0.10
2019-01-24T09:48:04.779Z,-0.20
2019-01-24T09:50:34.083Z,-0.20
2019-01-24T09:53:03.477Z,-0.20
2019-01-24T09:55:33.220Z,-0.20
2019-01-24T09:58:02.606Z,-0.10
2019-01-24T10:00:33.998Z,0.00
2019-01-24T10:03:03.860Z,0.00
2019-01-24T10:05:33.641Z,0.00
2019-01-24T10:08:03.828Z,0.10
2019-01-24T10:10:33.285Z,0.20
2019-01-24T10:13:02.710Z,0.20
2019-01-24T10:15:32.409Z,0.20
2019-01-24T10:18:02.118Z,0.20
2019-01-24T10:20:31.514Z,0.20
2019-01-24T10:23:01.280Z,0.20
2019-01-24T10:25:38.567Z,0.20
2019-01-24T10:28:08.992Z,0.30
2019-01-24T10:30:42.696Z,0.40
2019-01-24T10:33:09.465Z,0.30
2019-01-24T10:35:38.904Z,0.30
2019-01-24T10:38:08.333Z,0.30
2019-01-24T10:40:37.692Z,0.30
2019-01-24T10:43:07.434Z,0.30
2019-01-24T10:45:37.288Z,0.30
2019-01-24T10:48:07.425Z,0.30
2019-01-24T10:50:36.950Z,0.30
2019-01-24T10:53:06.876Z,0.30
2019-01-24T10:55:36.376Z,0.30
2019-01-24T10:58:06.962Z,0.20
2019-01-24T11:00:41.482Z,0.20
2019-01-24T11:03:16.038Z,0.30
2019-01-24T11:05:45.541Z,0.50
2019-01-24T11:08:15.333Z,0.70
2019-01-24T11:10:44.632Z,0.70
2019-01-24T11:13:14.516Z,0.90
2019-01-24T11:15:44.036Z,0.90
2019-01-24T11:18:13.729Z,0.80
2019-01-24T11:20:42.984Z,0.70
2019-01-24T11:23:12.359Z,0.80
2019-01-24T11:25:41.724Z,0.90
2019-01-24T11:28:11.136Z,1.00
2019-01-24T11:30:40.561Z,1.00
2019-01-24T11:33:10.274Z,1.00
2019-01-24T11:35:40.996Z,1.00
2019-01-24T11:38:10.632Z,0.90
2019-01-24T11:40:39.982Z,0.90
2019-01-24T11:43:09.591Z,1.00
2019-01-24T11:45:41.416Z,1.10
2019-01-24T11:48:10.745Z,1.20
2019-01-24T11:50:40.483Z,1.10
2019-01-24T11:53:09.944Z,1.10
2019-01-24T11:55:39.149Z,1.10
2019-01-24T11:58:09.128Z,1.10
2019-01-24T12:01:05.356Z,1.00
2019-01-24T12:03:34.725Z,0.90
2019-01-24T12:06:04.101Z,0.90
2019-01-24T12:08:33.501Z,0.90
2019-01-24T12:11:02.781Z,1.00
2019-01-24T12:13:32.128Z,1.00
2019-01-24T12:16:01.413Z,1.10
2019-01-24T12:18:31.155Z,1.10
2019-01-24T12:21:00.499Z,1.20
2019-01-24T12:23:29.787Z,1.20
2019-01-24T12:25:59.374Z,1.20
2019-01-24T12:28:29.268Z,1.20
2019-01-24T12:30:58.953Z,1.30
2019-01-24T12:33:28.615Z,1.30
2019-01-24T12:35:57.911Z,1.20
2019-01-24T12:38:27.309Z,1.30
2019-01-24T12:40:57.053Z,1.30
2019-01-24T12:43:26.409Z,1.20
2019-01-24T12:45:56.364Z,1.30
2019-01-24T12:48:25.894Z,1.30
2019-01-24T12:50:55.849Z,1.30
2019-01-24T12:53:25.145Z,1.30
2019-01-24T12:55:54.677Z,1.40
2019-01-24T12:58:24.330Z,1.40
2019-01-24T13:00:53.918Z,1.30
2019-01-24T13:03:23.329Z,1.30
2019-01-24T13:05:53.070Z,1.40
2019-01-24T13:08:22.469Z,1.40
2019-01-24T13:10:52.334Z,1.50
2019-01-24T13:13:22.037Z,1.60
2019-01-24T13:15:51.852Z,1.70
2019-01-24T13:18:23.916Z,1.70
2019-01-24T13:20:53.303Z,1.70
2019-01-24T13:23:23.223Z,1.80
2019-01-24T13:25:52.866Z,1.90
2019-01-24T13:28:22.178Z,1.90
2019-01-24T13:30:51.563Z,1.90
2019-01-24T13:33:20.995Z,1.90
2019-01-24T13:35:50.370Z,2.00
2019-01-24T13:38:19.734Z,2.00
2019-01-24T13:40:48.990Z,2.00
2019-01-24T13:43:18.531Z,2.00
2019-01-24T13:45:51.474Z,2.00
2019-01-24T13:48:21.271Z,1.90
2019-01-24T13:50:53.175Z,1.90
2019-01-24T13:53:22.944Z,1.90
2019-01-24T13:55:54.292Z,1.90
2019-01-24T13:58:23.766Z,2.00
2019-01-24T14:00:53.506Z,1.90
2019-01-24T14:03:27.857Z,2.00
2019-01-24T14:05:57.678Z,2.00
2019-01-24T14:08:27.242Z,2.10
2019-01-24T14:10:57.987Z,2.00
2019-01-24T14:13:27.518Z,2.00
2019-01-24T14:15:57.191Z,2.10
2019-01-24T14:18:26.560Z,2.00
2019-01-24T14:20:59.282Z,2.00
2019-01-24T14:23:28.642Z,2.00
2019-01-24T14:25:57.959Z,2.00
2019-01-24T14:28:28.249Z,2.00
2019-01-24T14:30:57.587Z,2.00
2019-01-24T14:33:29.502Z,2.00
2019-01-24T14:35:58.986Z,1.90
2019-01-24T14:38:28.795Z,1.90
2019-01-24T14:40:58.326Z,1.90
2019-01-24T14:43:27.712Z,1.80
2019-01-24T14:45:57.485Z,1.80
2019-01-24T14:48:26.822Z,1.80
2019-01-24T14:50:56.197Z,1.80
2019-01-24T14:53:25.582Z,1.80
2019-01-24T14:55:55.354Z,1.80
2019-01-24T14:58:24.786Z,1.80
2019-01-24T15:01:19.056Z,1.80
2019-01-24T15:03:48.710Z,1.80
2019-01-24T15:06:18.541Z,1.70
2019-01-24T15:08:47.949Z,1.70
2019-01-24T15:11:20.598Z,1.70
2019-01-24T15:13:52.548Z,1.60
2019-01-24T15:16:21.965Z,1.70
2019-01-24T15:18:54.725Z,1.70
2019-01-24T15:21:24.234Z,1.60
2019-01-24T15:23:54.917Z,1.60
2019-01-24T15:26:24.207Z,1.60
2019-01-24T15:28:53.584Z,1.50
2019-01-24T15:31:22.961Z,1.50
2019-01-24T15:33:52.975Z,1.50
2019-01-24T15:36:22.418Z,1.40
2019-01-24T15:38:51.853Z,1.40
2019-01-24T15:41:21.201Z,1.30
2019-01-24T15:43:50.523Z,1.30
2019-01-24T15:46:19.942Z,1.20
2019-01-24T15:48:49.306Z,1.20
2019-01-24T15:51:19.145Z,1.10
2019-01-24T15:53:48.579Z,1.00
2019-01-24T15:56:18.252Z,0.90
2019-01-24T15:58:48.016Z,0.90
2019-01-24T16:01:17.599Z,0.80
2019-01-24T16:03:47.233Z,0.80
2019-01-24T16:06:16.515Z,0.70
2019-01-24T16:08:46.452Z,0.70
2019-01-24T16:11:16.097Z,0.60
2019-01-24T16:13:45.747Z,0.60
2019-01-24T16:16:15.551Z,0.50
2019-01-24T16:18:44.920Z,0.50
2019-01-24T16:21:14.502Z,0.40
2019-01-24T16:23:43.872Z,0.40
2019-01-24T16:26:13.567Z,0.40
2019-01-24T16:28:43.098Z,0.30
2019-01-24T16:31:12.583Z,0.30
2019-01-24T16:33:42.603Z,0.30
2019-01-24T16:36:11.944Z,0.30
2019-01-24T16:38:41.517Z,0.30
2019-01-24T16:41:11.198Z,0.20
2019-01-24T16:43:40.859Z,0.20
2019-01-24T16:46:10.772Z,0.20
2019-01-24T16:48:40.079Z,0.20
2019-01-24T16:51:10.228Z,0.20
2019-01-24T16:53:42.006Z,0.10
2019-01-24T16:56:11.041Z,0.10
2019-01-24T16:58:40.718Z,0.10
2019-01-24T17:01:19.550Z,0.00
2019-01-24T17:03:49.043Z,0.00
2019-01-24T17:06:18.467Z,0.00
2019-01-24T17:08:48.806Z,0.00
2019-01-24T17:11:18.117Z,0.00
2019-01-24T17:14:06.701Z,0.00
2019-01-24T17:17:15.502Z,0.00
2019-01-24T17:19:45.155Z,0.00
2019-01-24T17:22:17.167Z,0.00
2019-01-24T17:24:46.824Z,0.00
2019-01-24T17:27:19.251Z,0.00
2019-01-24T17:29:48.536Z,0.10
2019-01-24T17:32:17.926Z,0.10
2019-01-24T17:34:47.223Z,0.10
2019-01-24T17:37:16.649Z,0.20
2019-01-24T17:39:46.468Z,0.20
2019-01-24T17:42:15.792Z,0.20
2019-01-24T17:44:45.071Z,0.30
2019-01-24T17:47:16.842Z,0.30
2019-01-24T17:49:46.512Z,0.30
2019-01-24T17:52:15.960Z,0.30
2019-01-24T17:54:45.556Z,0.30
2019-01-24T17:57:14.951Z,0.30
2019-01-24T17:59:44.588Z,0.30
2019-01-24T18:02:14.230Z,0.30
2019-01-24T18:04:43.814Z,0.30
2019-01-24T18:07:13.577Z,0.30
2019-01-24T18:09:42.879Z,0.30
2019-01-24T18:12:12.834Z,0.30
2019-01-24T18:14:44.776Z,0.40
2019-01-24T18:17:14.076Z,0.40
2019-01-24T18:19:43.486Z,0.40
2019-01-24T18:22:13.284Z,0.40
2019-01-24T18:24:42.594Z,0.40
2019-01-24T18:27:11.912Z,0.50
2019-01-24T18:29:42.806Z,0.50
2019-01-24T18:32:12.159Z,0.50
2019-01-24T18:34:41.549Z,0.60
2019-01-24T18:37:10.812Z,0.60
2019-01-24T18:39:40.166Z,0.60
2019-01-24T18:42:09.920Z,0.60
2019-01-24T18:44:39.760Z,0.60
2019-01-24T18:47:09.117Z,0.60
2019-01-24T18:49:39.023Z,0.70
2019-01-24T18:52:08.293Z,0.70
2019-01-24T18:54:40.026Z,0.70
2019-01-24T18:57:08.816Z,0.70
2019-01-24T18:59:38.147Z,0.70
2019-01-24T19:02:08.051Z,0.70
2019-01-24T19:04:37.365Z,0.70
2019-01-24T19:07:06.638Z,0.70
2019-01-24T19:09:36.253Z,0.70
2019-01-24T19:12:08.375Z,0.70
2019-01-24T19:14:37.724Z,0.60
2019-01-24T19:17:06.948Z,0.70
2019-01-24T19:19:36.337Z,0.70
2019-01-24T19:22:05.779Z,0.70
2019-01-24T19:24:35.206Z,0.80
2019-01-24T19:27:07.905Z,0.70
2019-01-24T19:29:37.557Z,0.80
2019-01-24T19:32:06.923Z,0.80
2019-01-24T19:34:36.646Z,0.80
2019-01-24T19:37:06.065Z,0.80
2019-01-24T19:39:35.464Z,0.80
2019-01-24T19:42:05.187Z,0.80
2019-01-24T19:44:34.558Z,0.90
2019-01-24T19:47:04.161Z,0.90
2019-01-24T19:49:33.466Z,0.90
2019-01-24T19:52:03.464Z,0.90
2019-01-24T19:54:32.861Z,0.90
2019-01-24T19:57:02.542Z,0.90
2019-01-24T19:59:31.805Z,0.80
2019-01-24T20:02:01.105Z,0.80
2019-01-24T20:04:30.804Z,0.80
2019-01-24T20:07:06.209Z,0.80
2019-01-24T20:09:38.535Z,0.70
2019-01-24T20:12:07.928Z,0.70
2019-01-24T20:14:37.216Z,0.70
2019-01-24T20:17:06.485Z,0.70
2019-01-24T20:19:35.913Z,0.60
2019-01-24T20:22:08.176Z,0.60
2019-01-24T20:24:37.878Z,0.60
2019-01-24T20:27:07.281Z,0.60
2019-01-24T20:29:39.487Z,0.60
2019-01-24T20:32:10.689Z,0.60
2019-01-24T20:34:40.319Z,0.60
2019-01-24T20:37:13.413Z,0.70
2019-01-24T20:39:42.796Z,0.60
2019-01-24T20:42:12.482Z,0.60
2019-01-24T20:44:41.904Z,0.50
2019-01-24T20:47:11.636Z,0.50
2019-01-24T20:49:40.967Z,0.50
2019-01-24T20:52:10.401Z,0.50
2019-01-24T20:54:39.988Z,0.50
2019-01-24T20:57:09.660Z,0.50
2019-01-24T20:59:38.980Z,0.50
2019-01-24T21:02:08.607Z,0.50
2019-01-24T21:04:38.527Z,0.60
2019-01-24T21:07:08.009Z,0.50
2019-01-24T21:09:37.364Z,0.50
2019-01-24T21:12:06.814Z,0.50
2019-01-24T21:14:38.143Z,0.50
2019-01-24T21:17:07.603Z,0.40
2019-01-24T21:19:37.301Z,0.40
2019-01-24T21:22:07.324Z,0.30
2019-01-24T21:24:36.917Z,0.30
2019-01-24T21:27:06.610Z,0.20
2019-01-24T21:29:36.097Z,0.20
2019-01-24T21:32:05.466Z,0.20
2019-01-24T21:34:34.803Z,0.10
2019-01-24T21:37:04.766Z,0.20
2019-01-24T21:39:36.820Z,0.20
2019-01-24T21:42:06.323Z,0.20
2019-01-24T21:44:37.149Z,0.20
2019-01-24T21:47:06.688Z,0.20
2019-01-24T21:49:38.834Z,0.20
2019-01-24T21:52:08.280Z,0.30
2019-01-24T21:54:39.450Z,0.30
2019-01-24T21:57:08.941Z,0.30
2019-01-24T21:59:38.349Z,0.30
2019-01-24T22:02:07.976Z,0.30
2019-01-24T22:04:37.466Z,0.50
2019-01-24T22:07:07.072Z,0.30
2019-01-24T22:09:36.532Z,0.40
2019-01-24T22:12:06.393Z,0.40
2019-01-24T22:14:36.088Z,0.40
2019-01-24T22:17:05.726Z,0.40
2019-01-24T22:19:35.128Z,0.50
2019-01-24T22:22:04.705Z,0.50
2019-01-24T22:24:34.368Z,0.60
2019-01-24T22:27:03.691Z,0.60
2019-01-24T22:29:33.356Z,0.60
2019-01-24T22:32:02.792Z,0.60
2019-01-24T22:34:32.103Z,0.60
2019-01-24T22:37:02.260Z,0.60
2019-01-24T22:39:36.570Z,0.70
2019-01-24T22:42:02.599Z,0.70
2019-01-24T22:44:32.246Z,0.70
2019-01-24T22:47:01.707Z,0.60
2019-01-24T22:49:31.389Z,0.60
2019-01-24T22:52:00.795Z,0.60
2019-01-24T22:54:30.147Z,0.60
2019-01-24T22:56:59.771Z,0.60
2019-01-24T22:59:29.109Z,0.70
2019-01-24T23:02:25.424Z,0.70
2019-01-24T23:04:54.815Z,0.70
2019-01-24T23:07:24.202Z,0.70
2019-01-24T23:09:53.684Z,0.70
2019-01-24T23:12:23.035Z,0.70
2019-01-24T23:14:52.452Z,0.70
2019-01-24T23:17:22.160Z,0.60
2019-01-24T23:19:51.571Z,0.70
2019-01-24T23:22:20.899Z,0.70
2019-01-24T23:24:50.341Z,0.70
2019-01-24T23:27:19.721Z,0.70
2019-01-24T23:29:49.187Z,0.70
2019-01-24T23:32:18.877Z,0.70
2019-01-24T23:34:48.579Z,0.70
2019-01-24T23:37:17.967Z,0.70
2019-01-24T23:39:51.698Z,0.70
2019-01-24T23:42:18.933Z,0.70
2019-01-24T23:44:48.314Z,0.70
2019-01-24T23:47:17.733Z,0.70
2019-01-24T23:49:47.125Z,0.70
2019-01-24T23:52:16.435Z,0.70
2019-01-24T23:54:46.154Z,0.80
2019-01-24T23:57:15.567Z,0.80
2019-01-24T23:59:45.227Z,0.80
